Lilliwaup, Washington
Current Conditions -  °F | °C
As of 8:53 PM on Monday 20 Oct 2014 (Local Time) from KSHN Reporting Station
Light Rain Light Rain  
Wind Chill: 54°   Ceiling: 6500
Heat Index: 54°   Visibility: 6mi
Dew Point: 53°   Wind: 5mph
Humidity: 97%   Direction: 250°WSW
Pressure: 29.76"   Gusts: NA
Location:  47.46°N, 123.12°W
Report Text: KSHN 210353Z AUTO 25004KT 6SM -RA BR FEW021 FEW048 OVC065 12/12 A2976 RMK AO2 RAE01B30 SLP076 P0001 T01220117 TSNO
Loading
Personal Weather Stations






























Interactive Weather Map
Tropical Storm Tracking
New forecast layout! Learn more

10-Day Weather Forecast

Advertisements
Track Severe Weather on mobile